Terminal Aerodrome Forecast
Issued by NWS Twin Cities, MN

Home | Current Version | Previous Version | Text Only | Print | Product List | Glossary Off
Versions: 1 2 3 4 5 6 7 8 9 10 11 12 13 14

000
FTUS43 KMPX 242300
TAFSTC
TAF
KSTC 242322Z 2500/2524 19010KT P6SM VCTS SCT035CB BKN100
     FM250100 22007KT P6SM SCT050 BKN100
     FM250400 23003KT P6SM SKC
     FM251400 25008KT P6SM SKC
     FM251800 26013G20KT P6SM SCT040=

USA.gov is the U.S. government's official web portal to all federal, state and local government web resources and services.